Time;durP1;ratioP1;P1;durP2;ratioP2;P2;SDS_P1;SDS_P2;PMS_P1;PMS_P2;Temp;Humidity;BMP_temperature;BMP_pressure;BME280_temperature;BME280_humidity;BME280_pressure;Samples;Min_cycle;Max_cycle;Signal;HPM_P1;HPM_P2
2023/07/03 00:00:31;;;;;;;8.95;5.75;;;;;;;16.72;100.00;92793.69;5085638;28;20414;-76
2023/07/03 00:02:58;;;;;;;8.73;6.18;;;;;;;16.67;100.00;92799.66;5074354;28;20098;-76
2023/07/03 00:05:24;;;;;;;10.23;5.72;;;;;;;16.62;100.00;92794.47;5067832;28;20052;-76
2023/07/03 00:07:52;;;;;;;8.70;5.70;;;;;;;16.62;100.00;92799.66;5067177;28;20071;-76
2023/07/03 00:10:21;;;;;;;9.13;5.88;;;;;;;16.62;100.00;92794.47;5070163;28;20103;-76
2023/07/03 00:12:48;;;;;;;8.30;5.38;;;;;;;16.60;100.00;92799.91;5067689;28;20045;-76
2023/07/03 00:15:16;;;;;;;12.02;6.40;;;;;;;16.57;100.00;92797.81;5071781;28;20102;-76
2023/07/03 00:17:45;;;;;;;8.70;5.47;;;;;;;16.52;100.00;92801.19;5084013;28;20051;-79
2023/07/03 00:20:14;;;;;;;10.25;5.78;;;;;;;16.48;100.00;92797.53;5086274;28;20044;-78
2023/07/03 00:22:41;;;;;;;7.68;5.20;;;;;;;16.48;100.00;92799.34;5084211;28;20075;-77
2023/07/03 00:25:08;;;;;;;9.63;5.75;;;;;;;16.45;100.00;92799.84;5067944;28;20051;-77
2023/07/03 00:27:35;;;;;;;10.98;5.80;;;;;;;16.36;100.00;92794.41;5068655;28;20052;-76
2023/07/03 00:30:02;;;;;;;9.35;5.82;;;;;;;16.36;100.00;92802.16;5067488;28;20044;-76
2023/07/03 00:32:30;;;;;;;9.82;5.95;;;;;;;16.35;100.00;92805.81;5067808;28;20048;-77
2023/07/03 00:34:57;;;;;;;11.00;6.22;;;;;;;16.28;100.00;92798.25;5066731;28;20098;-77
2023/07/03 00:37:23;;;;;;;9.75;5.60;;;;;;;16.30;100.00;92806.56;5070470;28;20403;-77
2023/07/03 00:39:50;;;;;;;9.43;5.65;;;;;;;16.26;100.00;92803.69;5067576;28;20506;-77
2023/07/03 00:42:17;;;;;;;10.82;6.43;;;;;;;16.28;100.00;92811.22;5066879;28;20094;-77
2023/07/03 00:44:44;;;;;;;9.23;5.35;;;;;;;16.21;100.00;92797.72;5069463;28;20094;-77
2023/07/03 00:47:11;;;;;;;8.88;5.65;;;;;;;16.20;100.00;92804.72;5067293;28;20052;-77
2023/07/03 00:49:39;;;;;;;9.63;6.43;;;;;;;16.22;100.00;92814.81;5067055;28;20102;-76
2023/07/03 00:52:08;;;;;;;9.65;6.15;;;;;;;16.14;100.00;92811.69;5074365;28;20072;-77
2023/07/03 00:54:35;;;;;;;9.68;5.78;;;;;;;16.10;100.00;92813.25;5069588;28;20110;-77
2023/07/03 00:57:01;;;;;;;8.98;6.45;;;;;;;16.11;100.00;92819.22;5067192;28;20307;-76
2023/07/03 00:59:28;;;;;;;9.25;5.50;;;;;;;16.00;100.00;92803.63;5067260;28;20113;-77
2023/07/03 01:02:06;;;;;;;8.18;5.32;;;;;;;16.01;100.00;92815.53;5071996;28;20509;-77
2023/07/03 01:04:38;;;;;;;9.38;5.78;;;;;;;16.06;100.00;92814.00;5078062;28;20053;-79
2023/07/03 01:07:10;;;;;;;10.60;6.00;;;;;;;16.09;100.00;92818.66;5066736;28;20137;-78
2023/07/03 01:09:41;;;;;;;9.73;6.00;;;;;;;16.07;100.00;92823.31;5078520;28;20228;-78
2023/07/03 01:12:10;;;;;;;9.75;5.97;;;;;;;16.07;100.00;92821.53;5073185;28;20048;-78
2023/07/03 01:14:40;;;;;;;11.45;6.35;;;;;;;16.08;100.00;92812.72;5067063;28;20094;-78
2023/07/03 01:17:10;;;;;;;10.27;6.05;;;;;;;16.18;100.00;92814.56;5068073;28;20420;-78
2023/07/03 01:19:39;;;;;;;12.60;6.25;;;;;;;16.17;100.00;92807.81;5080143;28;20052;-77
2023/07/03 01:22:14;;;;;;;10.30;6.90;;;;;;;16.15;100.00;92818.44;5069487;28;20048;-78
2023/07/03 01:24:45;;;;;;;9.43;5.97;;;;;;;16.05;100.00;92802.84;5074620;28;20041;-78
2023/07/03 01:27:14;;;;;;;10.18;6.28;;;;;;;16.07;100.00;92818.16;5067020;28;20044;-77
2023/07/03 01:29:43;;;;;;;12.60;7.05;;;;;;;16.13;100.00;92817.13;5073395;28;20048;-76
2023/07/03 01:32:12;;;;;;;12.75;7.13;;;;;;;16.11;100.00;92812.19;5071111;28;20049;-77
2023/07/03 01:34:45;;;;;;;11.95;7.03;;;;;;;16.11;100.00;92816.63;5072592;28;20114;-77
2023/07/03 01:37:14;;;;;;;10.70;7.07;;;;;;;16.02;100.00;92796.38;5080990;28;20048;-78
2023/07/03 01:39:44;;;;;;;11.82;6.72;;;;;;;15.98;100.00;92794.53;5071571;28;20094;-78
2023/07/03 01:42:11;;;;;;;10.18;6.90;;;;;;;15.98;100.00;92800.47;5085338;28;20090;-78
2023/07/03 01:44:38;;;;;;;12.30;6.75;;;;;;;16.01;100.00;92817.34;5078941;28;20040;-78
2023/07/03 01:47:07;;;;;;;11.82;7.60;;;;;;;15.97;100.00;92818.91;5068005;28;20052;-78
2023/07/03 01:49:34;;;;;;;11.48;7.40;;;;;;;15.96;100.00;92817.34;5072854;28;20106;-77
2023/07/03 01:52:10;;;;;;;10.70;6.85;;;;;;;16.00;100.00;92820.97;5070949;28;20562;-78
2023/07/03 01:54:42;;;;;;;11.88;6.97;;;;;;;15.99;100.00;92812.44;5073728;28;20044;-77
2023/07/03 01:57:15;;;;;;;10.77;6.63;;;;;;;15.99;100.00;92809.84;5068475;28;20094;-78
2023/07/03 01:59:43;;;;;;;11.30;6.90;;;;;;;16.01;100.00;92812.94;5070583;28;20105;-77
2023/07/03 02:02:16;;;;;;;10.55;6.80;;;;;;;15.98;100.00;92808.25;5068871;28;20048;-78
2023/07/03 02:04:50;;;;;;;9.40;6.50;;;;;;;15.98;100.00;92805.66;5071041;28;20611;-79
2023/07/03 02:07:19;;;;;;;10.73;7.28;;;;;;;15.99;100.00;92815.03;5069629;28;20092;-79
2023/07/03 02:09:46;;;;;;;11.13;7.45;;;;;;;15.98;100.00;92820.44;5078926;28;20576;-79
2023/07/03 02:12:14;;;;;;;9.68;6.70;;;;;;;15.94;100.00;92809.81;5071224;28;20052;-78
2023/07/03 02:14:41;;;;;;;12.82;7.25;;;;;;;15.97;100.00;92817.06;5069083;28;20539;-77
2023/07/03 02:17:08;;;;;;;10.23;7.05;;;;;;;15.93;100.00;92820.41;5070015;28;20383;-77
2023/07/03 02:19:35;;;;;;;10.63;7.13;;;;;;;15.92;100.00;92817.00;5068231;28;20569;-77
2023/07/03 02:22:03;;;;;;;12.98;7.35;;;;;;;15.87;100.00;92819.56;5068129;28;20055;-77
2023/07/03 02:24:29;;;;;;;12.93;8.00;;;;;;;15.85;100.00;92832.00;5069319;28;20052;-77
2023/07/03 02:26:56;;;;;;;14.65;7.97;;;;;;;15.83;100.00;92821.13;5070441;28;20495;-77
2023/07/03 02:29:24;;;;;;;11.15;7.55;;;;;;;15.79;100.00;92826.03;5069755;28;20045;-77
2023/07/03 02:31:51;;;;;;;10.43;7.07;;;;;;;15.75;100.00;92825.72;5067756;28;20048;-77
2023/07/03 02:34:18;;;;;;;12.05;8.30;;;;;;;15.77;100.00;92823.69;5068827;28;20040;-77
2023/07/03 02:36:45;;;;;;;12.20;8.48;;;;;;;15.76;100.00;92829.13;5068160;28;20044;-77
2023/07/03 02:39:12;;;;;;;12.05;7.68;;;;;;;15.79;100.00;92831.22;5069483;28;20045;-78
2023/07/03 02:41:39;;;;;;;13.30;7.32;;;;;;;15.82;100.00;92833.28;5067927;28;20049;-78
2023/07/03 02:44:06;;;;;;;11.93;8.45;;;;;;;15.92;100.00;92835.13;5067854;28;20114;-78
2023/07/03 02:46:34;;;;;;;15.60;8.60;;;;;;;15.94;100.00;92838.31;5070505;28;20044;-78
2023/07/03 02:49:00;;;;;;;18.08;8.93;;;;;;;16.00;100.00;92831.31;5068661;28;20052;-78
2023/07/03 02:51:27;;;;;;;13.68;8.60;;;;;;;15.93;100.00;92826.41;5067569;28;20807;-78
2023/07/03 02:56:38;;;;;;;13.95;9.07;;;;;;;16.12;100.00;92839.66;5076324;28;20552;-78
2023/07/03 02:59:05;;;;;;;14.88;9.15;;;;;;;16.16;100.00;92848.50;5084596;28;20045;-78
2023/07/03 03:01:31;;;;;;;12.77;8.38;;;;;;;16.18;100.00;92856.03;5082142;28;20053;-78
2023/07/03 03:04:00;;;;;;;13.65;8.98;;;;;;;16.20;100.00;92848.75;5080641;28;20040;-78
2023/07/03 03:06:26;;;;;;;13.85;8.88;;;;;;;16.26;100.00;92850.34;5081299;28;20052;-78
2023/07/03 03:08:53;;;;;;;14.07;8.88;;;;;;;16.28;100.00;92844.91;5082696;28;20524;-77
2023/07/03 03:11:20;;;;;;;14.80;9.63;;;;;;;16.32;100.00;92851.16;5075049;28;20048;-77
2023/07/03 03:13:46;;;;;;;14.30;9.65;;;;;;;16.39;100.00;92848.31;5081428;28;20044;-77
2023/07/03 03:16:13;;;;;;;11.88;8.90;;;;;;;16.39;100.00;92840.56;5067329;28;20056;-76
2023/07/03 03:18:40;;;;;;;15.32;9.40;;;;;;;16.43;100.00;92839.78;5067335;28;20052;-77
2023/07/03 03:21:08;;;;;;;13.75;9.55;;;;;;;16.39;100.00;92833.53;5067620;28;20078;-77
2023/07/03 03:23:35;;;;;;;15.80;9.63;;;;;;;16.50;100.00;92851.72;5067472;28;20445;-77
2023/07/03 03:26:01;;;;;;;15.25;9.60;;;;;;;16.45;100.00;92844.72;5067632;28;20044;-77
2023/07/03 03:28:28;;;;;;;18.42;10.13;;;;;;;16.53;100.00;92846.03;5067779;28;20060;-77
2023/07/03 03:30:55;;;;;;;15.98;9.90;;;;;;;16.61;100.00;92847.34;5071184;28;20449;-78
2023/07/03 03:33:21;;;;;;;15.32;9.05;;;;;;;16.65;100.00;92850.97;5069436;28;20110;-78
2023/07/03 03:35:48;;;;;;;13.35;9.35;;;;;;;16.66;100.00;92849.97;5066933;28;20555;-77
2023/07/03 03:38:16;;;;;;;14.07;10.07;;;;;;;16.68;100.00;92853.84;5076644;28;20097;-79
2023/07/03 03:40:53;;;;;;;14.68;9.60;;;;;;;16.73;100.00;92858.28;5068376;28;20048;-78
2023/07/03 03:43:20;;;;;;;15.65;9.80;;;;;;;16.76;100.00;92860.34;5069343;28;20044;-77
2023/07/03 03:45:54;;;;;;;13.60;10.18;;;;;;;16.53;100.00;92815.69;5080826;28;20048;-78
2023/07/03 03:48:20;;;;;;;15.07;10.52;;;;;;;16.82;100.00;92864.50;5077883;28;20044;-77
2023/07/03 03:50:47;;;;;;;16.38;10.32;;;;;;;16.84;100.00;92861.66;5067091;28;20041;-77
2023/07/03 03:53:14;;;;;;;14.40;10.07;;;;;;;16.87;100.00;92857.75;5067932;28;20044;-77
2023/07/03 03:55:43;;;;;;;14.80;9.55;;;;;;;16.91;100.00;92864.00;5067743;28;20068;-78
2023/07/03 03:58:10;;;;;;;15.63;10.85;;;;;;;16.93;100.00;92861.91;5069340;28;20079;-77
2023/07/03 04:00:37;;;;;;;15.38;10.38;;;;;;;16.99;100.00;92860.13;5068552;28;20049;-77
2023/07/03 04:03:04;;;;;;;16.92;11.55;;;;;;;17.00;100.00;92866.88;5076293;28;20056;-77
2023/07/03 04:05:30;;;;;;;20.13;11.65;;;;;;;17.06;100.00;92879.63;5080049;28;20052;-77
2023/07/03 04:07:57;;;;;;;18.70;11.32;;;;;;;17.07;100.00;92876.00;5082949;28;20056;-77
2023/07/03 04:10:24;;;;;;;19.65;12.50;;;;;;;17.14;100.00;92869.75;5069281;28;20090;-77
2023/07/03 04:12:52;;;;;;;22.38;12.88;;;;;;;17.14;100.00;92873.16;5075986;28;20055;-78
2023/07/03 04:15:19;;;;;;;23.75;13.50;;;;;;;17.19;100.00;92873.16;5074489;28;20485;-78
2023/07/03 04:17:45;;;;;;;25.92;14.70;;;;;;;17.28;100.00;92885.59;5073899;28;20048;-78
2023/07/03 04:20:14;;;;;;;26.27;15.20;;;;;;;17.21;100.00;92878.84;5076788;28;20097;-78
2023/07/03 04:22:41;;;;;;;20.42;12.68;;;;;;;17.15;100.00;92882.50;5074408;28;20055;-78
2023/07/03 04:25:09;;;;;;;22.20;13.85;;;;;;;17.17;100.00;92888.19;5072745;28;20044;-78
2023/07/03 04:27:36;;;;;;;19.08;13.45;;;;;;;17.23;100.00;92886.38;5078189;28;20148;-78
2023/07/03 04:30:05;;;;;;;22.08;14.00;;;;;;;17.17;100.00;92887.44;5078116;28;20454;-78
2023/07/03 04:32:32;;;;;;;38.72;19.77;;;;;;;17.23;100.00;92887.16;5079992;28;20515;-79
2023/07/03 04:35:00;;;;;;;40.03;18.83;;;;;;;17.17;100.00;92892.63;5074580;28;20048;-78
2023/07/03 04:37:27;;;;;;;37.83;18.75;;;;;;;16.93;100.00;92893.84;5076862;28;20094;-78
2023/07/03 04:39:54;;;;;;;25.70;15.13;;;;;;;17.07;100.00;92895.97;5076972;28;20044;-78
2023/07/03 04:42:21;;;;;;;20.83;14.25;;;;;;;17.10;100.00;92900.66;5080853;28;20515;-78
2023/07/03 04:44:48;;;;;;;19.02;14.35;;;;;;;17.08;100.00;92880.13;5080341;28;20093;-77
2023/07/03 04:47:16;;;;;;;29.95;18.00;;;;;;;17.32;100.00;92892.59;5077177;28;20051;-78
2023/07/03 04:49:43;;;;;;;34.63;19.48;;;;;;;17.47;100.00;92898.84;5078354;28;20550;-78
2023/07/03 04:52:10;;;;;;;31.60;19.40;;;;;;;17.61;100.00;92896.50;5075606;28;20498;-78
2023/07/03 04:54:38;;;;;;;28.50;17.00;;;;;;;17.75;100.00;92897.53;5076879;28;20505;-78
2023/07/03 04:57:05;;;;;;;28.75;16.60;;;;;;;17.90;100.00;92899.34;5078503;28;20559;-78
2023/07/03 04:59:32;;;;;;;27.63;16.05;;;;;;;18.08;100.00;92910.25;5077574;28;20467;-78
2023/07/03 05:01:58;;;;;;;22.85;14.98;;;;;;;18.08;100.00;92899.84;5078644;28;20513;-78
2023/07/03 05:04:26;;;;;;;20.77;14.25;;;;;;;18.24;100.00;92910.22;5080350;28;20044;-78
2023/07/03 05:06:53;;;;;;;23.25;14.52;;;;;;;18.26;100.00;92913.31;5083141;28;20045;-78
2023/07/03 05:09:20;;;;;;;19.20;13.63;;;;;;;18.36;100.00;92917.69;5083704;28;20048;-78
2023/07/03 05:11:48;;;;;;;21.77;13.65;;;;;;;18.35;100.00;92914.31;5083040;28;20481;-79
2023/07/03 05:14:15;;;;;;;22.15;14.43;;;;;;;18.42;100.00;92924.44;5083696;28;20048;-79
2023/07/03 05:16:42;;;;;;;19.92;14.00;;;;;;;18.48;100.00;92920.00;5077299;28;20657;-79
2023/07/03 05:19:08;;;;;;;20.83;14.00;;;;;;;18.61;100.00;92927.22;5076465;28;20056;-78
2023/07/03 05:21:36;;;;;;;20.67;13.93;;;;;;;18.71;100.00;92926.41;5082912;28;20085;-78
2023/07/03 05:24:04;;;;;;;20.00;13.70;;;;;;;18.81;100.00;92917.78;5078652;28;20117;-78
2023/07/03 05:26:30;;;;;;;19.77;13.32;;;;;;;19.00;100.00;92930.16;5072540;28;20056;-78
2023/07/03 05:28:57;;;;;;;17.08;12.52;;;;;;;19.14;100.00;92923.34;5076052;28;20041;-79
2023/07/03 05:31:24;;;;;;;18.50;13.60;;;;;;;19.20;100.00;92935.28;5080817;28;20124;-78
2023/07/03 05:33:51;;;;;;;17.48;12.00;;;;;;;19.27;100.00;92937.59;5072129;28;20441;-78
2023/07/03 05:36:18;;;;;;;16.73;12.35;;;;;;;19.54;100.00;92944.19;5072722;28;20095;-79
2023/07/03 05:38:46;;;;;;;17.45;11.82;;;;;;;19.80;100.00;92943.22;5071939;28;20098;-78
2023/07/03 05:41:15;;;;;;;16.25;11.77;;;;;;;20.12;100.00;92950.50;5073123;28;20052;-78
2023/07/03 05:43:41;;;;;;;15.07;11.45;;;;;;;20.37;100.00;92951.28;5074608;28;20044;-79
2023/07/03 05:46:08;;;;;;;15.18;10.50;;;;;;;20.34;100.00;92917.16;5073095;28;20098;-80
2023/07/03 05:48:35;;;;;;;16.77;11.43;;;;;;;20.66;100.00;92958.31;5076693;28;20588;-79
2023/07/03 05:51:01;;;;;;;14.90;10.55;;;;;;;20.60;100.00;92953.41;5073378;28;20117;-79
2023/07/03 05:53:28;;;;;;;15.32;10.95;;;;;;;20.70;100.00;92955.91;5074384;28;20460;-79
2023/07/03 05:55:58;;;;;;;14.93;10.93;;;;;;;20.93;100.00;92964.03;5073791;28;20644;-79
2023/07/03 05:58:27;;;;;;;15.95;10.90;;;;;;;20.90;100.00;92951.53;5073518;28;20539;-79
2023/07/03 06:00:55;;;;;;;15.45;11.10;;;;;;;21.11;100.00;92964.31;5076621;28;20093;-80
2023/07/03 06:03:24;;;;;;;15.60;9.82;;;;;;;21.41;100.00;92957.91;5074604;28;20117;-80
2023/07/03 06:05:51;;;;;;;16.30;11.25;;;;;;;21.40;100.00;92960.78;5076283;28;20650;-79
2023/07/03 06:08:17;;;;;;;15.85;10.75;;;;;;;21.38;100.00;92960.31;5079326;28;20464;-79
2023/07/03 06:10:45;;;;;;;14.45;9.52;;;;;;;21.53;100.00;92952.25;5075480;28;20113;-79
2023/07/03 06:13:14;;;;;;;15.15;10.85;;;;;;;21.54;100.00;92960.84;5075349;28;20123;-79
2023/07/03 06:15:40;;;;;;;14.57;9.73;;;;;;;21.78;100.00;92968.63;5073178;28;20470;-80
2023/07/03 06:18:07;;;;;;;16.27;11.13;;;;;;;22.10;100.00;92964.44;5073649;28;20530;-80
2023/07/03 06:20:34;;;;;;;14.80;9.75;;;;;;;22.11;100.00;92967.81;5076236;28;20048;-80
2023/07/03 06:23:01;;;;;;;15.98;10.30;;;;;;;22.26;100.00;92966.81;5074710;28;20048;-80
2023/07/03 06:25:28;;;;;;;15.40;9.52;;;;;;;22.43;100.00;92972.25;5071672;28;20075;-80
2023/07/03 06:27:55;;;;;;;18.17;10.90;;;;;;;22.00;100.00;92967.22;5071467;28;20881;-80
2023/07/03 06:30:23;;;;;;;14.32;10.75;;;;;;;22.23;100.00;92968.16;5072280;28;20091;-79
2023/07/03 06:32:49;;;;;;;14.48;9.80;;;;;;;22.30;100.00;92970.38;5077870;28;20052;-80
2023/07/03 06:35:17;;;;;;;15.02;10.43;;;;;;;22.15;100.00;92956.50;5080115;28;20048;-80
2023/07/03 06:37:44;;;;;;;14.35;9.23;;;;;;;22.16;100.00;92970.34;5071443;28;20091;-80
2023/07/03 06:40:14;;;;;;;13.20;9.35;;;;;;;22.32;100.00;92967.47;5069906;28;20524;-80
2023/07/03 06:42:41;;;;;;;14.45;9.23;;;;;;;22.29;100.00;92966.22;5070299;28;20084;-80
2023/07/03 06:45:08;;;;;;;14.77;10.13;;;;;;;22.57;100.00;92970.75;5070257;28;20470;-79
2023/07/03 06:47:36;;;;;;;12.77;9.88;;;;;;;22.43;100.00;92967.00;5070036;28;20514;-80
2023/07/03 06:50:04;;;;;;;14.35;9.93;;;;;;;22.68;100.00;92974.72;5071699;28;20059;-80
2023/07/03 06:52:30;;;;;;;14.27;9.38;;;;;;;22.80;100.00;92959.28;5071211;28;20394;-80
2023/07/03 06:54:57;;;;;;;14.02;9.85;;;;;;;23.06;100.00;92971.84;5070375;28;20045;-80
2023/07/03 06:57:24;;;;;;;12.95;9.07;;;;;;;22.89;100.00;92972.47;5068097;28;20060;-80
2023/07/03 06:59:51;;;;;;;13.70;8.02;;;;;;;23.27;100.00;92968.81;5068613;28;20122;-80
2023/07/03 07:02:18;;;;;;;12.88;9.23;;;;;;;23.17;100.00;92969.81;5068418;28;20417;-81
2023/07/03 07:04:46;;;;;;;13.07;8.98;;;;;;;23.17;99.44;92969.81;5068122;28;20048;-80
2023/07/03 07:07:13;;;;;;;11.15;8.23;;;;;;;23.34;96.93;92971.81;5025710;28;1583965;-80
2023/07/03 07:09:40;;;;;;;10.95;7.72;;;;;;;23.68;94.66;92958.50;5083951;28;20180;-81
2023/07/03 07:12:07;;;;;;;12.18;8.27;;;;;;;24.05;91.71;92964.44;5068878;28;20051;-81
2023/07/03 07:14:34;;;;;;;9.80;7.10;;;;;;;23.94;93.16;92971.00;5070888;28;20433;-80
2023/07/03 07:17:01;;;;;;;12.35;7.63;;;;;;;23.68;92.49;92961.91;5084426;28;20110;-80
2023/07/03 07:19:27;;;;;;;11.57;7.18;;;;;;;24.42;92.91;92956.47;5084158;28;20044;-81
2023/07/03 07:21:55;;;;;;;9.90;6.70;;;;;;;24.90;87.87;92968.06;5071290;28;20101;-81
2023/07/03 07:24:27;;;;;;;10.07;6.60;;;;;;;25.12;86.33;92965.66;5087109;28;20071;-81
2023/07/03 07:26:54;;;;;;;9.60;6.65;;;;;;;25.15;85.25;92957.16;5074025;28;20143;-81
2023/07/03 07:29:21;;;;;;;11.05;6.85;;;;;;;25.63;84.23;92967.88;5070919;28;20167;-81
2023/07/03 07:31:48;;;;;;;8.65;6.25;;;;;;;25.65;82.63;92968.31;5072478;28;20502;-82
2023/07/03 07:34:15;;;;;;;13.85;8.18;;;;;;;23.94;86.80;92977.03;5069050;28;20048;-82
2023/07/03 07:36:42;;;;;;;11.38;6.63;;;;;;;24.25;91.89;92954.56;5070741;28;20145;-81
2023/07/03 07:39:10;;;;;;;13.45;7.40;;;;;;;24.53;86.63;92968.25;5074669;28;20048;-81
2023/07/03 07:41:37;;;;;;;11.07;7.53;;;;;;;24.63;89.77;92974.31;5077727;28;20094;-81
2023/07/03 07:44:05;;;;;;;12.10;7.10;;;;;;;24.41;87.55;92976.72;5078562;28;20064;-81
2023/07/03 07:46:35;;;;;;;9.30;6.60;;;;;;;25.00;88.70;92968.88;5070462;28;20041;-80
2023/07/03 07:49:02;;;;;;;12.07;7.38;;;;;;;25.30;86.25;92979.56;5079198;28;20129;-81
2023/07/03 07:51:29;;;;;;;11.40;7.07;;;;;;;25.31;87.51;92986.38;5070928;28;20563;-80
2023/07/03 07:53:57;;;;;;;10.77;6.72;;;;;;;25.69;86.69;92962.13;5068638;28;20078;-81
2023/07/03 07:56:26;;;;;;;8.20;6.50;;;;;;;25.77;82.36;92968.47;5067381;28;20494;-80
2023/07/03 07:58:53;;;;;;;19.65;7.32;;;;;;;26.45;82.66;92990.03;5068700;28;20045;-81
2023/07/03 08:01:20;;;;;;;8.82;6.57;;;;;;;26.71;80.54;92989.16;5068831;28;20047;-81
2023/07/03 08:03:47;;;;;;;9.02;6.30;;;;;;;26.85;76.91;92991.56;5069134;28;20057;-82
2023/07/03 08:06:15;;;;;;;7.82;5.65;;;;;;;25.83;81.63;92987.50;5083074;28;20446;-81
2023/07/03 08:08:42;;;;;;;10.93;7.00;;;;;;;25.55;81.04;92991.22;5085309;28;20052;-81
2023/07/03 08:11:10;;;;;;;8.52;6.03;;;;;;;24.73;86.38;92987.16;5080878;28;20497;-81
2023/07/03 08:13:40;;;;;;;9.18;6.70;;;;;;;25.22;87.99;92986.38;5072749;28;20048;-81
2023/07/03 08:16:07;;;;;;;9.02;6.40;;;;;;;25.03;85.27;92978.75;5068517;28;20043;-81
2023/07/03 08:18:33;;;;;;;10.50;6.43;;;;;;;25.22;88.46;92989.00;5073460;28;20192;-80
2023/07/03 08:21:00;;;;;;;11.93;6.78;;;;;;;25.79;87.16;92984.72;5068177;28;20052;-81
2023/07/03 08:23:29;;;;;;;8.52;5.45;;;;;;;25.61;84.75;92982.09;5067710;28;20048;-82
2023/07/03 08:25:56;;;;;;;11.05;6.38;;;;;;;25.69;85.15;92995.56;5069568;28;20163;-80
2023/07/03 08:28:23;;;;;;;11.15;6.05;;;;;;;25.62;81.73;92985.50;5068477;28;20110;-81
2023/07/03 08:30:51;;;;;;;11.98;6.30;;;;;;;25.46;82.25;92993.81;5073349;28;20049;-80
2023/07/03 08:33:18;;;;;;;9.98;5.95;;;;;;;25.80;84.30;92991.53;5067528;28;20253;-80
2023/07/03 08:35:46;;;;;;;9.45;6.03;;;;;;;25.43;82.03;92970.78;5067773;28;20048;-80
2023/07/03 08:38:13;;;;;;;11.52;6.22;;;;;;;25.88;80.66;92995.25;5067935;28;20060;-82
2023/07/03 08:40:40;;;;;;;8.05;5.22;;;;;;;25.78;83.09;93003.44;5076249;28;20625;-79
2023/07/03 08:43:12;;;;;;;7.90;4.65;;;;;;;26.21;81.27;92978.16;5070823;28;20064;-80
2023/07/03 08:45:44;;;;;;;6.43;4.55;;;;;;;25.65;80.13;92979.63;5073730;28;20132;-80
2023/07/03 08:48:16;;;;;;;6.45;4.57;;;;;;;25.12;81.20;92961.16;5067383;28;20048;-78
2023/07/03 08:50:47;;;;;;;6.07;4.05;;;;;;;25.34;81.67;92986.56;5073868;28;20417;-80
2023/07/03 08:53:18;;;;;;;6.80;3.90;;;;;;;25.45;78.86;92963.34;5075615;28;20449;-78
2023/07/03 08:55:51;;;;;;;6.22;3.17;;;;;;;24.74;76.26;92995.81;5074119;28;20049;-79
2023/07/03 08:58:17;;;;;;;6.43;4.03;;;;;;;24.11;82.39;93004.50;5068369;28;20090;-78
2023/07/03 09:00:53;;;;;;;5.93;3.40;;;;;;;24.57;81.67;92988.66;5078872;28;20044;-77
2023/07/03 09:03:25;;;;;;;;;;;;;;;24.32;82.39;93001.34;5067636;28;20510;-79
2023/07/03 09:06:04;;;;;;;6.10;3.35;;;;;;;24.57;80.85;92970.28;5067273;28;19928;-78
2023/07/03 09:08:39;;;;;;;6.82;3.50;;;;;;;24.74;80.06;92967.69;5068059;28;20052;-78
2023/07/03 09:11:06;;;;;;;7.97;3.38;;;;;;;25.05;80.57;92987.88;5081637;28;20049;-77
2023/07/03 09:13:36;;;;;;;5.15;3.47;;;;;;;24.79;75.79;93000.94;5067025;28;20122;-78
2023/07/03 09:16:07;;;;;;;4.57;3.28;;;;;;;24.64;77.04;92989.78;5067400;28;20591;-77
2023/07/03 09:18:42;;;;;;;6.13;3.65;;;;;;;24.72;81.08;92995.34;5072722;28;20048;-78
2023/07/03 09:21:09;;;;;;;4.65;3.15;;;;;;;25.06;76.10;92997.34;5069922;28;20090;-80
2023/07/03 09:23:43;;;;;;;5.80;3.55;;;;;;;25.46;80.02;92999.06;5073651;28;20419;-79
2023/07/03 09:26:16;;;;;;;4.55;3.00;;;;;;;25.71;75.67;92993.38;5076175;28;20394;-77
2023/07/03 09:28:44;;;;;;;4.97;3.08;;;;;;;25.55;77.02;93001.72;5067507;28;20048;-77
2023/07/03 09:31:10;;;;;;;5.55;3.33;;;;;;;24.63;73.50;93009.19;5068281;28;20582;-78
2023/07/03 09:33:39;;;;;;;5.43;3.17;;;;;;;24.39;76.43;93010.34;5068940;28;20094;-77
2023/07/03 09:36:23;;;;;;;6.68;3.63;;;;;;;24.22;79.11;93013.66;5072698;28;20053;-78
2023/07/03 09:38:50;;;;;;;5.75;3.40;;;;;;;24.42;79.40;93011.59;5066515;28;20094;-79
2023/07/03 09:41:24;;;;;;;5.03;3.30;;;;;;;24.66;78.07;93003.34;5066995;28;20048;-80
2023/07/03 09:43:51;;;;;;;6.35;3.85;;;;;;;25.24;79.10;92980.81;5071167;28;20548;-79
2023/07/03 09:46:19;;;;;;;5.72;3.38;;;;;;;25.77;76.30;93001.91;5082985;28;20545;-78
2023/07/03 09:48:48;;;;;;;5.15;3.10;;;;;;;26.08;71.42;93001.72;5085433;28;20051;-78
2023/07/03 09:51:26;;;;;;;4.97;3.70;;;;;;;26.11;72.23;93000.31;5072689;28;20463;-78
2023/07/03 09:53:56;;;;;;;5.95;3.50;;;;;;;25.43;73.61;93004.19;5075734;28;20079;-77
2023/07/03 09:56:24;;;;;;;6.32;3.85;;;;;;;25.38;73.50;92993.81;5074674;28;20045;-77
2023/07/03 09:58:54;;;;;;;5.75;3.55;;;;;;;24.85;76.11;93004.22;5073120;28;20048;-77
2023/07/03 10:01:24;;;;;;;6.13;3.58;;;;;;;25.12;73.99;92997.19;5070379;28;20127;-78
2023/07/03 10:04:02;;;;;;;6.03;3.88;;;;;;;24.98;75.66;92992.06;5078464;28;20101;-78
2023/07/03 10:06:29;;;;;;;7.15;3.55;;;;;;;25.15;73.59;92993.94;5080338;28;20464;-78
2023/07/03 10:09:01;;;;;;;4.70;3.00;;;;;;;25.64;73.27;92991.22;5072001;28;20097;-79
2023/07/03 10:11:33;;;;;;;6.00;3.83;;;;;;;25.77;74.78;92989.50;5071514;28;20094;-78
2023/07/03 10:14:00;;;;;;;6.80;4.40;;;;;;;25.68;73.09;93002.66;5070127;28;20051;-77
2023/07/03 10:16:28;;;;;;;4.85;3.20;;;;;;;25.68;73.52;92992.16;5072391;28;20058;-77
2023/07/03 10:18:59;;;;;;;6.32;3.45;;;;;;;26.06;77.47;92993.34;5070128;28;20098;-79
2023/07/03 10:21:25;;;;;;;4.93;2.97;;;;;;;26.06;72.65;92997.84;5074607;28;20047;-78
2023/07/03 10:23:54;;;;;;;5.22;3.22;;;;;;;25.97;72.32;92979.44;5070280;28;20052;-79
2023/07/03 10:26:25;;;;;;;7.97;3.42;;;;;;;26.44;74.67;92991.13;5070151;28;20048;-78
2023/07/03 10:28:58;;;;;;;5.63;3.38;;;;;;;26.71;69.33;92991.78;5082561;28;20040;-79
2023/07/03 10:31:31;;;;;;;5.78;3.28;;;;;;;27.00;67.94;92977.09;5072882;28;20554;-78
2023/07/03 10:34:04;;;;;;;5.68;3.15;;;;;;;26.78;69.79;92990.22;5073558;28;20401;-78
2023/07/03 10:36:34;;;;;;;7.25;3.60;;;;;;;26.50;68.28;92977.47;5069513;28;20638;-77
2023/07/03 10:39:07;;;;;;;6.10;3.65;;;;;;;27.16;66.03;92990.53;5069896;28;20052;-77
2023/07/03 10:41:38;;;;;;;6.82;3.70;;;;;;;26.90;66.01;92994.78;5069622;28;20118;-77
2023/07/03 10:44:09;;;;;;;4.32;2.95;;;;;;;27.26;67.72;92990.13;5069032;28;20044;-79
2023/07/03 10:46:41;;;;;;;5.50;3.33;;;;;;;26.52;65.96;92983.19;5068977;28;20497;-76
2023/07/03 10:49:17;;;;;;;8.70;3.53;;;;;;;26.78;68.31;92970.97;5083273;28;20052;-79
2023/07/03 10:51:53;;;;;;;6.05;2.97;;;;;;;26.96;63.83;92995.41;5083653;28;20093;-77
2023/07/03 10:54:26;;;;;;;6.13;3.35;;;;;;;27.48;64.67;92991.69;5073833;28;20502;-76
2023/07/03 10:56:57;;;;;;;4.95;3.08;;;;;;;28.12;64.08;92998.78;5069098;28;20052;-75
2023/07/03 10:59:27;;;;;;;5.03;3.08;;;;;;;27.85;64.00;92990.31;5071337;28;20060;-76
2023/07/03 11:02:15;;;;;;;5.35;3.38;;;;;;;27.58;64.69;92979.22;5075528;28;20056;-75
2023/07/03 11:04:53;;;;;;;4.68;3.33;;;;;;;26.88;66.71;92980.41;5080733;28;20453;-75
2023/07/03 11:07:29;;;;;;;5.60;3.42;;;;;;;26.68;67.93;92996.63;5078659;28;20056;-75
2023/07/03 11:10:02;;;;;;;6.10;3.97;;;;;;;26.55;68.67;92993.09;5074142;28;20642;-75
2023/07/03 11:12:36;;;;;;;5.82;3.75;;;;;;;26.22;71.22;92975.22;5069598;28;20106;-75
2023/07/03 11:15:17;;;;;;;6.15;3.35;;;;;;;26.89;71.59;92966.13;5086914;28;20103;-75
2023/07/03 11:17:56;;;;;;;5.55;3.42;;;;;;;26.88;65.50;92980.41;5082626;28;20066;-74
2023/07/03 11:20:37;;;;;;;4.78;3.00;;;;;;;27.00;65.52;92980.53;5068763;28;20059;-74
2023/07/03 11:23:15;;;;;;;6.35;3.35;;;;;;;26.49;69.34;92977.78;5079694;28;20055;-75
2023/07/03 11:25:53;;;;;;;5.40;3.45;;;;;;;26.32;70.88;92986.50;5081678;28;20048;-75
2023/07/03 11:28:29;;;;;;;4.75;3.20;;;;;;;26.25;71.53;92971.97;5076746;28;20502;-74
2023/07/03 11:30:58;;;;;;;5.57;3.00;;;;;;;26.67;72.94;92967.94;5077287;28;20070;-74